Apalachia Observed Data For Previous 48 Hours

Caption
Day and Hour Reservoir Elevation (behind dam)* Tailwater Elevation (below dam)* Average Hourly Discharge*
10/19/2018 2 AM EDT 1,277.18 840.34 2,901
10/19/2018 3 AM EDT 1,277.10 839.52 1,558
10/19/2018 4 AM EDT 1,277.05 839.52 1,493
10/19/2018 5 AM EDT 1,276.96 839.53 1,493
10/19/2018 6 AM EDT 1,276.87 839.54 1,491
10/19/2018 7 AM EDT 1,276.60 840.33 2,873
10/19/2018 8 AM EDT 1,276.67 840.34 2,898
10/19/2018 9 AM EDT 1,276.81 840.35 2,893
10/19/2018 10 AM EDT 1,276.78 840.33 2,894
10/19/2018 11 AM EDT 1,276.87 840.34 2,891
10/19/2018 12 PM EDT 1,276.96 840.33 2,897
10/19/2018 1 PM EDT 1,276.98 840.34 2,895
10/19/2018 2 PM EDT 1,277.09 840.34 2,901
10/19/2018 3 PM EDT 1,277.14 840.34 2,892
10/19/2018 4 PM EDT 1,277.20 840.33 2,898
10/19/2018 5 PM EDT 1,277.29 840.33 2,898
10/19/2018 6 PM EDT 1,277.30 840.35 2,890
10/19/2018 7 PM EDT 1,277.38 840.35 2,896
10/19/2018 8 PM EDT 1,277.48 840.33 2,893
10/19/2018 9 PM EDT 1,277.55 840.31 2,897
10/19/2018 10 PM EDT 1,277.62 840.32 2,897
10/19/2018 11 PM EDT 1,277.67 839.52 1,570
10/20/2018 12 AM EDT 1,277.44 839.51 1,499
10/20/2018 1 AM EDT 1,277.28 839.51 1,495
10/20/2018 2 AM EDT 1,277.34 837.81 108
10/20/2018 3 AM EDT 1,277.27 837.98 66
10/20/2018 4 AM EDT 1,277.26 837.83 694
10/20/2018 5 AM EDT 1,277.23 837.81 62
10/20/2018 6 AM EDT 1,277.29 837.86 59
10/20/2018 7 AM EDT 1,277.26 837.84 715
10/20/2018 8 AM EDT 1,277.20 837.85 60
10/20/2018 9 AM EDT 1,277.22 837.85 55
10/20/2018 10 AM EDT 1,277.20 837.92 57
10/20/2018 11 AM EDT 1,277.18 839.53 1,508
10/20/2018 12 PM EDT 1,277.18 840.37 2,879
10/20/2018 1 PM EDT 1,277.40 840.35 2,889
10/20/2018 2 PM EDT 1,277.45 840.39 2,890
10/20/2018 3 PM EDT 1,277.47 840.36 2,891
10/20/2018 4 PM EDT 1,277.58 840.37 2,897
10/20/2018 5 PM EDT 1,277.58 840.37 2,892
10/20/2018 6 PM EDT 1,277.70 840.40 2,890
10/20/2018 7 PM EDT 1,277.76 840.39 2,892
10/20/2018 8 PM EDT 1,277.80 840.39 2,901
10/20/2018 9 PM EDT 1,277.85 840.36 2,903
10/20/2018 10 PM EDT 1,277.94 840.37 2,906
10/20/2018 11 PM EDT 1,277.82 840.36 2,901
10/21/2018 12 AM EDT 1,277.67 839.59 1,569
10/21/2018 1 AM EDT 1,277.54 839.57 1,506
10/21/2018 2 AM EDT 1,277.57 838.02 111
10/21/2018 3 AM EDT 1,277.58 838.13 68
10/21/2018 4 AM EDT 1,277.46 838.01 697
10/21/2018 5 AM EDT 1,277.44 837.99 55
10/21/2018 6 AM EDT 1,277.47 838.01 58
10/21/2018 7 AM EDT 1,277.48 837.98 692
10/21/2018 8 AM EDT 1,277.70 837.96 55
10/21/2018 9 AM EDT 1,277.88 837.95 55
10/21/2018 10 AM EDT 1,278.11 837.98 58

Elevations are in feet above sea level. Discharges are in cubic feet per second and are reported at the end of the hour.